»·PEaware :: N27JP KAJO-KVCV

N27JP :: KAJO-KVCV

FLIGHT INFORMATION

Flight Status: Arrived
Operator: Privately registered:
United States
More flights under this callsign
Pilot: Weston J. (31543)
Aircraft: CESSNA 172 SKYHAWK
(C172)
More flights by this aircraft type
Origin: KAJO Corona Mun
United States
Destination: KVCV Socal Logistics
United States
More flights between these airports :: More routes between these airports
Route: PDZ V442 APLES
File this flight plan on PilotEdge
Remarks: Practice for the I-11
Altitude:
(Current/Filed)
11,000ft
Speed:
(Current/Filed)
110kts
Departed: 02-Jan-21 09:36 AM
Arrived: 02-Jan-21 10:55 AM
Distance/Time
Traveled:
43nm/1:19
Distance/Time
To Go:
Arrived

Flight Plot

Page will automatically refresh every two minutes.


Map Options




Map Legend


Flown Route
Filed Route
Departure Airport
Arrival Airport
Navaid (VOR, NDB)
Fix

Horizontal Profiles

Position Reports

Time Latitude Longitude Heading Altitude Ground
Speed
02-Jan-21 09:25 33.895843 -117.598828 273 537ft 0kts
02-Jan-21 09:26 33.895844 -117.598835 274 537ft 0kts
02-Jan-21 09:27 33.895844 -117.598835 274 537ft 0kts
02-Jan-21 09:28 33.895844 -117.598835 274 537ft 0kts
02-Jan-21 09:29 33.896694 -117.598532 2 537ft 0kts
02-Jan-21 09:30 33.896694 -117.598532 2 537ft 0kts
02-Jan-21 09:31 33.896694 -117.598532 2 537ft 0kts
02-Jan-21 09:32 33.896694 -117.598532 2 537ft 0kts
02-Jan-21 09:33 33.896779 -117.598527 3 537ft 3kts
02-Jan-21 09:34 33.897302 -117.597449 355 537ft 0kts
02-Jan-21 09:35 33.897602 -117.606130 269 618ft 83kts
02-Jan-21 09:36 33.908619 -117.615099 72 1504ft 87kts
02-Jan-21 09:37 33.910624 -117.583726 80 2278ft 94kts
02-Jan-21 09:38 33.913268 -117.552450 80 3051ft 94kts
02-Jan-21 09:39 33.921130 -117.523979 41 3787ft 90kts
02-Jan-21 09:40 33.941048 -117.500319 42 3991ft 108kts
02-Jan-21 09:41 33.960475 -117.513151 265 4000ft 109kts
02-Jan-21 09:42 33.937321 -117.523521 165 4442ft 105kts
02-Jan-21 09:43 33.913457 -117.537658 267 5080ft 96kts
02-Jan-21 09:44 33.930163 -117.540174 40 5708ft 91kts
02-Jan-21 09:45 33.948722 -117.520290 63 6299ft 97kts
02-Jan-21 09:46 33.929735 -117.508509 237 6754ft 100kts
02-Jan-21 09:47 33.912683 -117.533882 274 7254ft 90kts
02-Jan-21 09:48 33.928643 -117.532775 42 7748ft 89kts
02-Jan-21 09:49 33.945607 -117.513946 17 8280ft 77kts
02-Jan-21 09:50 33.964347 -117.502529 14 8833ft 73kts
02-Jan-21 09:51 33.985081 -117.489865 19 9008ft 92kts
02-Jan-21 09:52 34.008700 -117.475749 16 9022ft 99kts
02-Jan-21 09:53 34.034648 -117.460112 18 8976ft 105kts
02-Jan-21 09:54 34.061039 -117.444212 18 8973ft 105kts
02-Jan-21 09:55 34.087621 -117.428230 18 8971ft 105kts
02-Jan-21 09:56 34.114210 -117.412231 18 8975ft 106kts
02-Jan-21 09:57 34.140997 -117.396090 18 8975ft 107kts
02-Jan-21 09:58 34.167140 -117.380320 17 8973ft 98kts
02-Jan-21 09:59 34.191099 -117.366027 16 8975ft 94kts
02-Jan-21 10:00 34.213256 -117.352943 13 9294ft 85kts
02-Jan-21 10:01 34.234074 -117.340603 11 9792ft 81kts
02-Jan-21 10:02 34.254127 -117.328609 10 10283ft 79kts
02-Jan-21 10:03 34.273613 -117.316933 8 10771ft 77kts
02-Jan-21 10:04 34.294126 -117.304486 14 11000ft 90kts
02-Jan-21 10:05 34.317433 -117.290042 13 11001ft 98kts
02-Jan-21 10:06 34.342590 -117.274631 14 10998ft 102kts
02-Jan-21 10:07 34.366796 -117.259897 13 10994ft 92kts
02-Jan-21 10:08 34.389639 -117.246133 12 10995ft 91kts
02-Jan-21 10:09 34.412405 -117.232343 13 10991ft 91kts
02-Jan-21 10:10 34.434726 -117.218228 15 10376ft 85kts
02-Jan-21 10:11 34.456159 -117.205161 16 9769ft 87kts
02-Jan-21 10:13 34.478053 -117.191897 17 9160ft 88kts
02-Jan-21 10:14 34.497480 -117.180234 8 8994ft 69kts
02-Jan-21 10:15 34.520203 -117.166441 17 8987ft 98kts
02-Jan-21 10:16 34.545525 -117.151319 15 8982ft 102kts
02-Jan-21 10:17 34.572953 -117.144387 1 8980ft 100kts
02-Jan-21 10:18 34.600898 -117.143047 354 8980ft 99kts
02-Jan-21 10:19 34.628349 -117.146370 347 8980ft 98kts
02-Jan-21 10:20 34.654886 -117.154345 337 8979ft 96kts
02-Jan-21 10:21 34.679918 -117.166424 333 8861ft 97kts
02-Jan-21 10:22 34.703536 -117.182067 326 8448ft 96kts
02-Jan-21 10:23 34.725396 -117.201632 320 8038ft 98kts
02-Jan-21 10:24 34.745243 -117.225005 313 7615ft 101kts
02-Jan-21 10:25 34.762978 -117.252673 305 7106ft 104kts
02-Jan-21 10:25 34.775342 -117.278350 299 6682ft 106kts
02-Jan-21 10:27 34.788110 -117.316411 290 6017ft 100kts
02-Jan-21 10:28 34.794863 -117.351741 281 5404ft 113kts
02-Jan-21 10:29 34.783403 -117.378508 170 4944ft 109kts
02-Jan-21 10:29 34.758677 -117.376015 180 4751ft 101kts
02-Jan-21 10:30 34.729762 -117.377784 183 4751ft 110kts
02-Jan-21 10:32 34.692988 -117.381282 184 4251ft 114kts
02-Jan-21 10:32 34.666700 -117.383778 185 3742ft 111kts
02-Jan-21 10:33 34.636906 -117.387010 179 3193ft 103kts
02-Jan-21 10:34 34.604942 -117.386480 176 3450ft 114kts
02-Jan-21 10:35 34.581225 -117.403278 257 4167ft 100kts
02-Jan-21 10:36 34.594028 -117.430854 317 4766ft 104kts
02-Jan-21 10:37 34.606858 -117.463638 293 5190ft 111kts
02-Jan-21 10:38 34.615601 -117.499796 287 5544ft 110kts
02-Jan-21 10:39 34.621450 -117.536768 280 5870ft 111kts
02-Jan-21 10:40 34.629417 -117.573109 316 5928ft 111kts
02-Jan-21 10:41 34.655012 -117.593208 325 5270ft 110kts
02-Jan-21 10:42 34.644326 -117.619636 171 4542ft 123kts
02-Jan-21 10:43 34.612975 -117.606576 172 4066ft 123kts
02-Jan-21 10:44 34.584524 -117.592893 104 4275ft 109kts
02-Jan-21 10:45 34.584251 -117.554557 84 4034ft 114kts
02-Jan-21 10:46 34.581953 -117.516698 92 3825ft 106kts
02-Jan-21 10:47 34.581259 -117.481432 86 3797ft 104kts
02-Jan-21 10:48 34.580760 -117.445357 85 3822ft 109kts
02-Jan-21 10:49 34.591396 -117.412226 27 3740ft 109kts
02-Jan-21 10:50 34.621278 -117.410440 354 3704ft 108kts
02-Jan-21 10:51 34.649787 -117.412339 14 3449ft 88kts
02-Jan-21 10:52 34.646374 -117.389605 138 3239ft 82kts
02-Jan-21 10:53 34.623684 -117.386765 178 2928ft 75kts
02-Jan-21 10:54 34.610638 -117.386099 112 2833ft 32kts
02-Jan-21 10:55 34.610524 -117.385198 90 2834ft 0kts
02-Jan-21 10:56 34.609911 -117.384200 172 2834ft 16kts
02-Jan-21 10:57 34.602554 -117.384143 180 2846ft 33kts
02-Jan-21 10:58 34.594395 -117.383375 132 2860ft 18kts
02-Jan-21 10:59 34.590894 -117.379132 135 2870ft 9kts
02-Jan-21 11:00 34.588173 -117.375479 135 2875ft 0kts

Navigation Log

Ident Type
Flight plan parsing failed, navigation log unavailable